Terminal Aerodrome Forecast
Issued by NWS

Current Version | Previous Version | Text Only | Print | Product List | Glossary Off
Versions: 1 2 3 4 5 6 7 8 9 10 11 12 13 14 15 16 17 18 19 20 21 22 23 24 25 26 27 28 29 30 31 32 33 34 35 36 37 38 39 40 41 42 43 44 45 46 47 48 49 50

000
FTUS41 KRNK 201902 AAA
TAFLWB
TAF AMD
KLWB 201902Z 2019/2118 24007KT P6SM OVC120
     FM202100 22005KT P6SM SCT050 OVC080
      TEMPO 2021/2023 5SM -SHRA SCT035 OVC050
     FM210400 VRB03KT P6SM VCSH BKN015
     FM211500 29008KT P6SM VCSH BKN020=

USA.gov is the U.S. government's official web portal to all federal, state and local government web resources and services.